sensor_id;sensor_type;location;lat;lon;timestamp;pressure;altitude;pressure_sealevel;temperature;humidity
38939;BME280;24211;49.980;19.776;2023-04-27T00:01:15;99485.97;;;6.35;100.00
38939;BME280;24211;49.980;19.776;2023-04-27T00:03:43;99488.38;;;6.30;100.00
38939;BME280;24211;49.980;19.776;2023-04-27T00:06:12;99485.72;;;6.30;100.00
38939;BME280;24211;49.980;19.776;2023-04-27T00:08:39;99491.41;;;6.27;100.00
38939;BME280;24211;49.980;19.776;2023-04-27T00:11:07;99483.81;;;6.24;100.00
38939;BME280;24211;49.980;19.776;2023-04-27T00:13:34;99485.84;;;6.22;100.00
38939;BME280;24211;49.980;19.776;2023-04-27T00:16:01;99487.88;;;6.20;100.00
38939;BME280;24211;49.980;19.776;2023-04-27T00:18:31;99484.22;;;6.21;100.00
38939;BME280;24211;49.980;19.776;2023-04-27T00:20:59;99488.25;;;6.17;100.00
38939;BME280;24211;49.980;19.776;2023-04-27T00:23:27;99485.00;;;6.15;100.00
38939;BME280;24211;49.980;19.776;2023-04-27T00:25:54;99488.66;;;6.14;100.00
38939;BME280;24211;49.980;19.776;2023-04-27T00:28:21;99490.66;;;6.12;100.00
38939;BME280;24211;49.980;19.776;2023-04-27T00:30:49;99484.56;;;6.12;100.00
38939;BME280;24211;49.980;19.776;2023-04-27T00:33:20;99491.06;;;6.09;100.00
38939;BME280;24211;49.980;19.776;2023-04-27T00:35:47;99485.78;;;6.09;100.00
38939;BME280;24211;49.980;19.776;2023-04-27T00:38:15;99491.06;;;6.09;100.00
38939;BME280;24211;49.980;19.776;2023-04-27T00:40:42;99482.28;;;6.09;100.00
38939;BME280;24211;49.980;19.776;2023-04-27T00:43:09;99482.47;;;6.07;100.00
38939;BME280;24211;49.980;19.776;2023-04-27T00:45:41;99484.13;;;6.08;100.00
38939;BME280;24211;49.980;19.776;2023-04-27T00:48:10;99484.50;;;6.05;100.00
38939;BME280;24211;49.980;19.776;2023-04-27T00:50:39;99481.84;;;6.05;100.00
38939;BME280;24211;49.980;19.776;2023-04-27T00:53:07;99491.00;;;6.03;100.00
38939;BME280;24211;49.980;19.776;2023-04-27T00:55:35;99491.19;;;6.01;100.00
38939;BME280;24211;49.980;19.776;2023-04-27T00:58:02;99488.94;;;5.98;100.00
38939;BME280;24211;49.980;19.776;2023-04-27T01:00:30;99489.75;;;5.99;100.00
38939;BME280;24211;49.980;19.776;2023-04-27T01:03:00;99487.47;;;5.96;100.00
38939;BME280;24211;49.980;19.776;2023-04-27T01:05:28;99498.28;;;5.94;100.00
38939;BME280;24211;49.980;19.776;2023-04-27T01:07:58;99496.63;;;5.93;100.00
38939;BME280;24211;49.980;19.776;2023-04-27T01:10:26;99504.78;;;5.91;100.00
38939;BME280;24211;49.980;19.776;2023-04-27T01:12:54;99502.31;;;5.90;100.00
38939;BME280;24211;49.980;19.776;2023-04-27T01:15:22;99498.84;;;5.89;100.00
38939;BME280;24211;49.980;19.776;2023-04-27T01:18:00;99504.34;;;5.88;100.00
38939;BME280;24211;49.980;19.776;2023-04-27T01:20:28;99505.38;;;5.87;100.00
38939;BME280;24211;49.980;19.776;2023-04-27T01:22:59;99499.41;;;5.85;100.00
38939;BME280;24211;49.980;19.776;2023-04-27T01:25:26;99508.19;;;5.85;100.00
38939;BME280;24211;49.980;19.776;2023-04-27T01:27:54;99511.19;;;5.82;100.00
38939;BME280;24211;49.980;19.776;2023-04-27T01:30:21;99517.31;;;5.83;100.00
38939;BME280;24211;49.980;19.776;2023-04-27T01:32:49;99512.00;;;5.83;100.00
38939;BME280;24211;49.980;19.776;2023-04-27T01:35:18;99505.88;;;5.82;100.00
38939;BME280;24211;49.980;19.776;2023-04-27T01:37:46;99507.06;;;5.80;100.00
38939;BME280;24211;49.980;19.776;2023-04-27T01:40:16;99508.72;;;5.81;100.00
38939;BME280;24211;49.980;19.776;2023-04-27T01:42:44;99510.75;;;5.79;100.00
38939;BME280;24211;49.980;19.776;2023-04-27T01:45:11;99514.03;;;5.81;100.00
38939;BME280;24211;49.980;19.776;2023-04-27T01:47:39;99516.88;;;5.79;100.00
38939;BME280;24211;49.980;19.776;2023-04-27T01:50:07;99514.41;;;5.78;100.00
38939;BME280;24211;49.980;19.776;2023-04-27T01:52:34;99515.59;;;5.75;100.00
38939;BME280;24211;49.980;19.776;2023-04-27T01:55:02;99524.59;;;5.74;100.00
38939;BME280;24211;49.980;19.776;2023-04-27T01:57:29;99522.09;;;5.73;100.00
38939;BME280;24211;49.980;19.776;2023-04-27T01:59:57;99520.84;;;5.69;100.00
38939;BME280;24211;49.980;19.776;2023-04-27T02:02:24;99514.91;;;5.67;100.00
38939;BME280;24211;49.980;19.776;2023-04-27T02:04:52;99523.25;;;5.64;100.00
38939;BME280;24211;49.980;19.776;2023-04-27T02:07:19;99519.34;;;5.60;100.00
38939;BME280;24211;49.980;19.776;2023-04-27T02:09:47;99518.69;;;5.58;100.00
38939;BME280;24211;49.980;19.776;2023-04-27T02:12:14;99522.56;;;5.55;100.00
38939;BME280;24211;49.980;19.776;2023-04-27T02:14:41;99520.28;;;5.52;100.00
38939;BME280;24211;49.980;19.776;2023-04-27T02:17:09;99528.78;;;5.48;100.00
38939;BME280;24211;49.980;19.776;2023-04-27T02:19:36;99520.19;;;5.46;100.00
38939;BME280;24211;49.980;19.776;2023-04-27T02:22:05;99525.88;;;5.43;100.00
38939;BME280;24211;49.980;19.776;2023-04-27T02:24:34;99519.28;;;5.39;100.00
38939;BME280;24211;49.980;19.776;2023-04-27T02:27:01;99530.09;;;5.37;100.00
38939;BME280;24211;49.980;19.776;2023-04-27T02:29:30;99516.38;;;5.34;100.00
38939;BME280;24211;49.980;19.776;2023-04-27T02:31:58;99525.34;;;5.33;100.00
38939;BME280;24211;49.980;19.776;2023-04-27T02:34:25;99526.69;;;5.28;100.00
38939;BME280;24211;49.980;19.776;2023-04-27T02:36:53;99532.41;;;5.25;100.00
38939;BME280;24211;49.980;19.776;2023-04-27T02:39:20;99531.72;;;5.23;100.00
38939;BME280;24211;49.980;19.776;2023-04-27T02:41:47;99540.06;;;5.20;100.00
38939;BME280;24211;49.980;19.776;2023-04-27T02:44:14;99521.91;;;5.17;100.00
38939;BME280;24211;49.980;19.776;2023-04-27T02:46:42;99524.06;;;5.14;100.00
38939;BME280;24211;49.980;19.776;2023-04-27T02:49:09;99526.28;;;5.10;100.00
38939;BME280;24211;49.980;19.776;2023-04-27T02:51:36;99519.34;;;5.09;100.00
38939;BME280;24211;49.980;19.776;2023-04-27T02:54:04;99525.00;;;5.06;100.00
38939;BME280;24211;49.980;19.776;2023-04-27T02:56:31;99527.00;;;5.04;100.00
38939;BME280;24211;49.980;19.776;2023-04-27T02:58:58;99531.03;;;5.00;100.00
38939;BME280;24211;49.980;19.776;2023-04-27T03:01:26;99533.06;;;4.98;100.00
38939;BME280;24211;49.980;19.776;2023-04-27T03:03:53;99528.13;;;4.95;100.00
38939;BME280;24211;49.980;19.776;2023-04-27T03:06:21;99530.13;;;4.93;100.00
38939;BME280;24211;49.980;19.776;2023-04-27T03:08:48;99533.78;;;4.92;100.00
38939;BME280;24211;49.980;19.776;2023-04-27T03:11:16;99538.63;;;4.89;100.00
38939;BME280;24211;49.980;19.776;2023-04-27T03:13:43;99544.44;;;4.84;100.00
38939;BME280;24211;49.980;19.776;2023-04-27T03:16:11;99545.47;;;4.83;100.00
38939;BME280;24211;49.980;19.776;2023-04-27T03:18:39;99547.50;;;4.81;100.00
38939;BME280;24211;49.980;19.776;2023-04-27T03:21:11;99542.56;;;4.78;100.00
38939;BME280;24211;49.980;19.776;2023-04-27T03:23:39;99542.91;;;4.75;100.00
38939;BME280;24211;49.980;19.776;2023-04-27T03:26:08;99553.50;;;4.75;100.00
38939;BME280;24211;49.980;19.776;2023-04-27T03:28:37;99553.84;;;4.72;100.00
38939;BME280;24211;49.980;19.776;2023-04-27T03:31:10;99563.81;;;4.70;100.00
38939;BME280;24211;49.980;19.776;2023-04-27T03:33:38;99553.56;;;4.67;100.00
38939;BME280;24211;49.980;19.776;2023-04-27T03:36:07;99560.06;;;4.64;100.00
38939;BME280;24211;49.980;19.776;2023-04-27T03:38:36;99565.53;;;4.63;100.00
38939;BME280;24211;49.980;19.776;2023-04-27T03:41:04;99567.53;;;4.61;100.00
38939;BME280;24211;49.980;19.776;2023-04-27T03:43:31;99566.91;;;4.59;100.00
38939;BME280;24211;49.980;19.776;2023-04-27T03:45:59;99567.91;;;4.58;100.00
38939;BME280;24211;49.980;19.776;2023-04-27T03:48:26;99568.88;;;4.57;100.00
38939;BME280;24211;49.980;19.776;2023-04-27T03:50:55;99571.53;;;4.57;100.00
38939;BME280;24211;49.980;19.776;2023-04-27T03:53:22;99576.19;;;4.55;100.00
38939;BME280;24211;49.980;19.776;2023-04-27T03:55:50;99578.84;;;4.55;100.00
38939;BME280;24211;49.980;19.776;2023-04-27T03:58:18;99584.78;;;4.57;100.00
38939;BME280;24211;49.980;19.776;2023-04-27T04:01:05;99577.22;;;4.54;100.00
38939;BME280;24211;49.980;19.776;2023-04-27T04:03:36;99582.50;;;4.54;100.00
38939;BME280;24211;49.980;19.776;2023-04-27T04:06:07;99584.97;;;4.55;100.00
38939;BME280;24211;49.980;19.776;2023-04-27T04:08:34;99587.81;;;4.54;100.00
38939;BME280;24211;49.980;19.776;2023-04-27T04:11:02;99588.44;;;4.56;100.00
38939;BME280;24211;49.980;19.776;2023-04-27T04:13:30;99594.72;;;4.55;100.00
38939;BME280;24211;49.980;19.776;2023-04-27T04:16:03;99587.81;;;4.54;100.00
38939;BME280;24211;49.980;19.776;2023-04-27T04:18:33;99594.72;;;4.55;100.00
38939;BME280;24211;49.980;19.776;2023-04-27T04:21:01;99596.38;;;4.56;100.00
38939;BME280;24211;49.980;19.776;2023-04-27T04:23:28;99600.66;;;4.57;100.00
38939;BME280;24211;49.980;19.776;2023-04-27T04:25:57;99598.69;;;4.59;100.00
38939;BME280;24211;49.980;19.776;2023-04-27T04:28:29;99600.94;;;4.62;100.00
38939;BME280;24211;49.980;19.776;2023-04-27T04:30:57;99607.53;;;4.66;100.00
38939;BME280;24211;49.980;19.776;2023-04-27T04:33:26;99602.34;;;4.73;100.00
38939;BME280;24211;49.980;19.776;2023-04-27T04:35:54;99607.72;;;4.79;100.00
38939;BME280;24211;49.980;19.776;2023-04-27T04:38:22;99604.38;;;4.85;100.00
38939;BME280;24211;49.980;19.776;2023-04-27T04:40:50;99606.31;;;4.91;100.00
38939;BME280;24211;49.980;19.776;2023-04-27T04:43:18;99607.56;;;4.95;100.00
38939;BME280;24211;49.980;19.776;2023-04-27T04:45:47;99607.22;;;4.98;100.00
38939;BME280;24211;49.980;19.776;2023-04-27T04:48:14;99606.03;;;5.01;100.00
38939;BME280;24211;49.980;19.776;2023-04-27T04:50:45;99607.50;;;5.03;100.00
38939;BME280;24211;49.980;19.776;2023-04-27T04:53:12;99615.06;;;5.06;100.00
38939;BME280;24211;49.980;19.776;2023-04-27T04:55:41;99611.06;;;5.10;100.00
38939;BME280;24211;49.980;19.776;2023-04-27T04:58:09;99618.66;;;5.13;100.00
38939;BME280;24211;49.980;19.776;2023-04-27T05:00:36;99624.19;;;5.18;100.00
38939;BME280;24211;49.980;19.776;2023-04-27T05:03:04;99614.25;;;5.20;100.00
38939;BME280;24211;49.980;19.776;2023-04-27T05:05:34;99618.66;;;5.28;100.00
38939;BME280;24211;49.980;19.776;2023-04-27T05:08:01;99622.75;;;5.31;100.00
38939;BME280;24211;49.980;19.776;2023-04-27T05:10:28;99629.69;;;5.32;100.00
38939;BME280;24211;49.980;19.776;2023-04-27T05:12:55;99631.34;;;5.33;100.00
38939;BME280;24211;49.980;19.776;2023-04-27T05:15:23;99635.53;;;5.42;100.00
38939;BME280;24211;49.980;19.776;2023-04-27T05:17:50;99636.44;;;5.49;100.00
38939;BME280;24211;49.980;19.776;2023-04-27T05:20:18;99630.78;;;5.52;100.00
38939;BME280;24211;49.980;19.776;2023-04-27T05:22:45;99633.50;;;5.58;100.00
38939;BME280;24211;49.980;19.776;2023-04-27T05:25:12;99631.56;;;5.67;100.00
38939;BME280;24211;49.980;19.776;2023-04-27T05:27:39;99634.75;;;5.77;100.00
38939;BME280;24211;49.980;19.776;2023-04-27T05:30:08;99636.22;;;5.94;100.00
38939;BME280;24211;49.980;19.776;2023-04-27T05:32:35;99638.72;;;6.02;100.00
38939;BME280;24211;49.980;19.776;2023-04-27T05:35:04;99638.38;;;6.05;100.00
38939;BME280;24211;49.980;19.776;2023-04-27T05:37:31;99638.41;;;6.26;100.00
38939;BME280;24211;49.980;19.776;2023-04-27T05:39:58;99636.72;;;6.46;100.00
38939;BME280;24211;49.980;19.776;2023-04-27T05:42:27;99637.66;;;6.53;100.00
38939;BME280;24211;49.980;19.776;2023-04-27T05:44:54;99637.97;;;6.72;100.00
38939;BME280;24211;49.980;19.776;2023-04-27T05:47:22;99640.63;;;6.72;100.00
38939;BME280;24211;49.980;19.776;2023-04-27T05:49:53;99643.34;;;6.78;100.00
38939;BME280;24211;49.980;19.776;2023-04-27T05:52:20;99640.31;;;7.09;100.00
38939;BME280;24211;49.980;19.776;2023-04-27T05:54:49;99639.75;;;7.20;100.00
38939;BME280;24211;49.980;19.776;2023-04-27T05:57:17;99647.59;;;7.28;100.00
38939;BME280;24211;49.980;19.776;2023-04-27T05:59:44;99647.72;;;7.54;100.00
38939;BME280;24211;49.980;19.776;2023-04-27T06:02:11;99644.50;;;7.59;100.00
38939;BME280;24211;49.980;19.776;2023-04-27T06:04:39;99652.28;;;7.60;100.00
38939;BME280;24211;49.980;19.776;2023-04-27T06:07:11;99651.03;;;7.56;100.00
38939;BME280;24211;49.980;19.776;2023-04-27T06:09:40;99643.31;;;7.74;100.00
38939;BME280;24211;49.980;19.776;2023-04-27T06:12:08;99643.81;;;7.91;100.00
38939;BME280;24211;49.980;19.776;2023-04-27T06:14:36;99645.06;;;8.02;100.00
38939;BME280;24211;49.980;19.776;2023-04-27T06:17:04;99644.75;;;8.31;100.00
38939;BME280;24211;49.980;19.776;2023-04-27T06:19:31;99643.81;;;8.65;100.00
38939;BME280;24211;49.980;19.776;2023-04-27T06:21:59;99641.94;;;8.91;100.00
38939;BME280;24211;49.980;19.776;2023-04-27T06:24:27;99646.88;;;8.81;100.00
38939;BME280;24211;49.980;19.776;2023-04-27T06:26:54;99644.97;;;9.14;100.00
38939;BME280;24211;49.980;19.776;2023-04-27T06:29:23;99644.97;;;9.28;100.00
38939;BME280;24211;49.980;19.776;2023-04-27T06:31:50;99649.72;;;9.06;100.00
38939;BME280;24211;49.980;19.776;2023-04-27T06:34:17;99652.19;;;9.07;100.00
38939;BME280;24211;49.980;19.776;2023-04-27T06:36:44;99658.72;;;9.25;100.00
38939;BME280;24211;49.980;19.776;2023-04-27T06:39:12;99650.44;;;9.65;100.00
38939;BME280;24211;49.980;19.776;2023-04-27T06:41:40;99656.09;;;9.82;100.00
38939;BME280;24211;49.980;19.776;2023-04-27T06:44:17;99649.53;;;9.78;100.00
38939;BME280;24211;49.980;19.776;2023-04-27T06:46:45;99653.06;;;9.72;100.00
38939;BME280;24211;49.980;19.776;2023-04-27T06:49:12;99655.63;;;9.98;100.00
38939;BME280;24211;49.980;19.776;2023-04-27T06:51:40;99648.13;;;10.26;100.00
38939;BME280;24211;49.980;19.776;2023-04-27T06:54:07;99652.94;;;10.42;100.00
38939;BME280;24211;49.980;19.776;2023-04-27T06:56:34;99654.41;;;10.70;100.00
38939;BME280;24211;49.980;19.776;2023-04-27T06:59:02;99651.91;;;10.75;100.00
38939;BME280;24211;49.980;19.776;2023-04-27T07:01:29;99650.41;;;11.03;100.00
38939;BME280;24211;49.980;19.776;2023-04-27T07:03:57;99643.38;;;11.09;100.00
38939;BME280;24211;49.980;19.776;2023-04-27T07:06:24;99647.19;;;11.38;100.00
38939;BME280;24211;49.980;19.776;2023-04-27T07:08:53;99653.38;;;11.38;100.00
38939;BME280;24211;49.980;19.776;2023-04-27T07:11:20;99643.97;;;11.54;100.00
38939;BME280;24211;49.980;19.776;2023-04-27T07:13:47;99657.16;;;11.73;100.00
38939;BME280;24211;49.980;19.776;2023-04-27T07:16:15;99642.00;;;11.97;98.62
38939;BME280;24211;49.980;19.776;2023-04-27T07:18:43;99647.47;;;11.91;96.06
38939;BME280;24211;49.980;19.776;2023-04-27T07:21:10;99645.03;;;12.19;93.91
38939;BME280;24211;49.980;19.776;2023-04-27T07:23:39;99643.09;;;12.26;92.47
38939;BME280;24211;49.980;19.776;2023-04-27T07:26:09;99642.47;;;12.54;88.09
38939;BME280;24211;49.980;19.776;2023-04-27T07:28:36;99644.16;;;12.78;84.23
38939;BME280;24211;49.980;19.776;2023-04-27T07:31:06;99650.66;;;12.70;81.68
38939;BME280;24211;49.980;19.776;2023-04-27T07:33:33;99647.06;;;12.76;80.91
38939;BME280;24211;49.980;19.776;2023-04-27T07:36:02;99643.63;;;13.10;77.25
38939;BME280;24211;49.980;19.776;2023-04-27T07:38:30;99647.13;;;13.23;74.19
38939;BME280;24211;49.980;19.776;2023-04-27T07:40:59;99648.53;;;13.37;74.93
38939;BME280;24211;49.980;19.776;2023-04-27T07:43:29;99651.09;;;13.32;74.98
38939;BME280;24211;49.980;19.776;2023-04-27T07:45:58;99644.34;;;13.41;73.07
38939;BME280;24211;49.980;19.776;2023-04-27T07:48:26;99649.72;;;13.29;72.91
38939;BME280;24211;49.980;19.776;2023-04-27T07:50:55;99653.63;;;13.03;70.75
38939;BME280;24211;49.980;19.776;2023-04-27T07:53:22;99647.59;;;13.20;70.09
38939;BME280;24211;49.980;19.776;2023-04-27T07:55:49;99650.63;;;13.35;71.91
38939;BME280;24211;49.980;19.776;2023-04-27T07:58:17;99653.69;;;13.27;68.63
38939;BME280;24211;49.980;19.776;2023-04-27T08:00:46;99647.69;;;13.01;69.77
38939;BME280;24211;49.980;19.776;2023-04-27T08:03:13;99646.91;;;13.13;73.01
38939;BME280;24211;49.980;19.776;2023-04-27T08:05:40;99648.19;;;13.10;72.11
38939;BME280;24211;49.980;19.776;2023-04-27T08:08:08;99642.72;;;13.17;70.83
38939;BME280;24211;49.980;19.776;2023-04-27T08:10:35;99642.34;;;13.13;72.21
38939;BME280;24211;49.980;19.776;2023-04-27T08:13:04;99648.78;;;13.24;71.14
38939;BME280;24211;49.980;19.776;2023-04-27T08:15:32;99652.50;;;13.23;68.00
38939;BME280;24211;49.980;19.776;2023-04-27T08:17:59;99645.00;;;13.01;68.51
38939;BME280;24211;49.980;19.776;2023-04-27T08:20:26;99660.41;;;12.94;69.74
38939;BME280;24211;49.980;19.776;2023-04-27T08:22:54;99654.09;;;13.00;69.65
38939;BME280;24211;49.980;19.776;2023-04-27T08:25:21;99658.19;;;12.91;68.59
38939;BME280;24211;49.980;19.776;2023-04-27T08:27:48;99655.19;;;12.58;70.49
38939;BME280;24211;49.980;19.776;2023-04-27T08:30:16;99669.13;;;12.48;74.77
38939;BME280;24211;49.980;19.776;2023-04-27T08:32:43;99667.28;;;12.49;76.67
38939;BME280;24211;49.980;19.776;2023-04-27T08:35:10;99666.66;;;12.35;74.95
38939;BME280;24211;49.980;19.776;2023-04-27T08:37:39;99666.00;;;12.22;73.40
38939;BME280;24211;49.980;19.776;2023-04-27T08:40:08;99660.06;;;12.20;71.81
38939;BME280;24211;49.980;19.776;2023-04-27T08:42:51;99670.88;;;12.43;69.87
38939;BME280;24211;49.980;19.776;2023-04-27T08:45:19;99662.16;;;12.48;67.90
38939;BME280;24211;49.980;19.776;2023-04-27T08:47:48;99655.69;;;12.78;66.51
38939;BME280;24211;49.980;19.776;2023-04-27T08:50:16;99659.47;;;13.00;65.27
38939;BME280;24211;49.980;19.776;2023-04-27T08:52:45;99660.91;;;13.15;66.71
38939;BME280;24211;49.980;19.776;2023-04-27T08:55:13;99661.75;;;13.27;67.16
38939;BME280;24211;49.980;19.776;2023-04-27T08:57:54;99660.44;;;13.41;67.88
38939;BME280;24211;49.980;19.776;2023-04-27T09:00:24;99660.31;;;13.47;68.76
38939;BME280;24211;49.980;19.776;2023-04-27T09:02:53;99663.13;;;13.52;68.69
38939;BME280;24211;49.980;19.776;2023-04-27T09:05:23;99659.94;;;13.67;68.86
38939;BME280;24211;49.980;19.776;2023-04-27T09:08:03;99657.38;;;13.72;69.14
38939;BME280;24211;49.980;19.776;2023-04-27T09:10:47;99657.22;;;13.78;69.87
38939;BME280;24211;49.980;19.776;2023-04-27T09:13:16;99654.84;;;13.94;69.04
38939;BME280;24211;49.980;19.776;2023-04-27T09:15:49;99657.78;;;13.92;66.62
38939;BME280;24211;49.980;19.776;2023-04-27T09:18:22;99658.72;;;13.86;63.43
38939;BME280;24211;49.980;19.776;2023-04-27T09:20:51;99659.25;;;13.60;61.50
38939;BME280;24211;49.980;19.776;2023-04-27T09:23:30;99667.22;;;13.08;60.74
38939;BME280;24211;49.980;19.776;2023-04-27T09:26:01;99657.53;;;12.66;61.33
38939;BME280;24211;49.980;19.776;2023-04-27T09:28:30;99665.44;;;12.61;63.03
38939;BME280;24211;49.980;19.776;2023-04-27T09:31:03;99672.16;;;12.40;64.41
38939;BME280;24211;49.980;19.776;2023-04-27T09:33:33;99671.75;;;12.25;65.86
38939;BME280;24211;49.980;19.776;2023-04-27T09:36:04;99681.59;;;11.95;65.95
38939;BME280;24211;49.980;19.776;2023-04-27T09:38:32;99670.84;;;11.84;67.47
38939;BME280;24211;49.980;19.776;2023-04-27T09:41:00;99673.72;;;11.82;67.55
38939;BME280;24211;49.980;19.776;2023-04-27T09:43:31;99675.13;;;11.66;69.86
38939;BME280;24211;49.980;19.776;2023-04-27T09:45:58;99682.84;;;11.56;71.62
38939;BME280;24211;49.980;19.776;2023-04-27T09:48:28;99671.81;;;11.46;70.77
38939;BME280;24211;49.980;19.776;2023-04-27T09:50:55;99673.91;;;11.44;70.81
38939;BME280;24211;49.980;19.776;2023-04-27T09:53:34;99673.41;;;11.54;70.57
38939;BME280;24211;49.980;19.776;2023-04-27T10:00:11;99659.50;;;12.00;70.66
38939;BME280;24211;49.980;19.776;2023-04-27T10:08:14;99657.72;;;12.53;66.21
38939;BME280;24211;49.980;19.776;2023-04-27T10:10:49;99651.28;;;12.72;65.49
38939;BME280;24211;49.980;19.776;2023-04-27T10:13:23;99648.59;;;12.95;63.89
38939;BME280;24211;49.980;19.776;2023-04-27T10:15:51;99645.50;;;13.10;62.07
38939;BME280;24211;49.980;19.776;2023-04-27T10:18:29;99649.94;;;13.28;62.72
38939;BME280;24211;49.980;19.776;2023-04-27T10:21:09;99646.06;;;13.47;63.25
38939;BME280;24211;49.980;19.776;2023-04-27T10:23:49;99639.06;;;13.57;60.51
38939;BME280;24211;49.980;19.776;2023-04-27T10:26:26;99643.22;;;13.76;59.05
38939;BME280;24211;49.980;19.776;2023-04-27T10:29:07;99630.88;;;14.04;57.53
38939;BME280;24211;49.980;19.776;2023-04-27T10:31:43;99630.09;;;14.31;57.60
38939;BME280;24211;49.980;19.776;2023-04-27T10:34:16;99618.44;;;14.71;56.17
38939;BME280;24211;49.980;19.776;2023-04-27T10:36:47;99614.03;;;14.98;56.56
38939;BME280;24211;49.980;19.776;2023-04-27T10:39:20;99611.53;;;15.30;52.52
38939;BME280;24211;49.980;19.776;2023-04-27T10:42:10;99615.75;;;15.42;53.62
38939;BME280;24211;49.980;19.776;2023-04-27T10:44:38;99617.53;;;15.53;55.41
38939;BME280;24211;49.980;19.776;2023-04-27T10:47:16;99619.72;;;16.00;50.59
38939;BME280;24211;49.980;19.776;2023-04-27T10:49:52;99624.38;;;15.44;52.70
38939;BME280;24211;49.980;19.776;2023-04-27T10:52:20;99632.81;;;15.31;53.24
38939;BME280;24211;49.980;19.776;2023-04-27T10:54:47;99629.81;;;15.11;51.66
38939;BME280;24211;49.980;19.776;2023-04-27T10:57:15;99637.00;;;14.72;52.47
38939;BME280;24211;49.980;19.776;2023-04-27T10:59:52;99647.75;;;14.27;53.27
38939;BME280;24211;49.980;19.776;2023-04-27T11:02:27;99648.19;;;13.96;53.47
38939;BME280;24211;49.980;19.776;2023-04-27T11:04:55;99649.41;;;13.77;53.93
38939;BME280;24211;49.980;19.776;2023-04-27T11:07:25;99653.19;;;13.53;54.84
38939;BME280;24211;49.980;19.776;2023-04-27T11:09:54;99663.84;;;13.36;55.43
38939;BME280;24211;49.980;19.776;2023-04-27T11:12:22;99658.34;;;13.20;55.44
38939;BME280;24211;49.980;19.776;2023-04-27T11:14:56;99654.22;;;13.05;55.68
38939;BME280;24211;49.980;19.776;2023-04-27T11:17:29;99663.22;;;12.99;55.97
38939;BME280;24211;49.980;19.776;2023-04-27T11:19:56;99665.28;;;12.97;56.00
38939;BME280;24211;49.980;19.776;2023-04-27T11:22:23;99671.59;;;12.91;55.89
38939;BME280;24211;49.980;19.776;2023-04-27T11:24:52;99657.94;;;12.93;56.42
38939;BME280;24211;49.980;19.776;2023-04-27T11:27:19;99658.19;;;13.03;55.63
38939;BME280;24211;49.980;19.776;2023-04-27T11:29:49;99653.44;;;13.17;55.50
38939;BME280;24211;49.980;19.776;2023-04-27T11:32:24;99646.91;;;13.36;54.62
38939;BME280;24211;49.980;19.776;2023-04-27T11:34:52;99657.03;;;13.57;54.15
38939;BME280;24211;49.980;19.776;2023-04-27T11:37:25;99650.91;;;13.85;53.88
38939;BME280;24211;49.980;19.776;2023-04-27T11:39:54;99644.88;;;14.17;52.81
38939;BME280;24211;49.980;19.776;2023-04-27T11:42:26;99643.81;;;14.47;51.80
38939;BME280;24211;49.980;19.776;2023-04-27T11:45:00;99639.84;;;14.66;50.99
38939;BME280;24211;49.980;19.776;2023-04-27T11:47:30;99637.66;;;14.79;51.53
38939;BME280;24211;49.980;19.776;2023-04-27T11:50:01;99641.59;;;15.05;48.90
38939;BME280;24211;49.980;19.776;2023-04-27T11:52:32;99649.97;;;14.92;50.53
38939;BME280;24211;49.980;19.776;2023-04-27T11:55:01;99649.72;;;14.77;50.72
38939;BME280;24211;49.980;19.776;2023-04-27T11:57:34;99652.00;;;14.85;49.57
38939;BME280;24211;49.980;19.776;2023-04-27T12:00:05;99645.88;;;14.73;50.94
38939;BME280;24211;49.980;19.776;2023-04-27T12:02:42;99641.25;;;14.68;50.34
38939;BME280;24211;49.980;19.776;2023-04-27T12:05:10;99645.69;;;14.46;51.14
38939;BME280;24211;49.980;19.776;2023-04-27T12:07:40;99652.28;;;14.38;52.13
38939;BME280;24211;49.980;19.776;2023-04-27T12:10:08;99652.53;;;14.25;53.81
38939;BME280;24211;49.980;19.776;2023-04-27T12:12:35;99655.34;;;14.30;53.30
38939;BME280;24211;49.980;19.776;2023-04-27T12:15:03;99650.91;;;14.24;54.19
38939;BME280;24211;49.980;19.776;2023-04-27T12:17:30;99643.66;;;14.25;55.10
38939;BME280;24211;49.980;19.776;2023-04-27T12:19:58;99648.31;;;14.29;55.20
38939;BME280;24211;49.980;19.776;2023-04-27T12:22:30;99649.50;;;14.33;54.97
38939;BME280;24211;49.980;19.776;2023-04-27T12:24:57;99643.16;;;14.39;55.86
38939;BME280;24211;49.980;19.776;2023-04-27T12:27:24;99638.53;;;14.52;55.54
38939;BME280;24211;49.980;19.776;2023-04-27T12:29:52;99648.56;;;14.56;55.71
38939;BME280;24211;49.980;19.776;2023-04-27T12:32:25;99629.66;;;14.68;56.34
38939;BME280;24211;49.980;19.776;2023-04-27T12:34:53;99636.13;;;14.83;56.31
38939;BME280;24211;49.980;19.776;2023-04-27T12:37:21;99639.22;;;14.92;55.04
38939;BME280;24211;49.980;19.776;2023-04-27T12:39:49;99642.31;;;15.00;56.21
38939;BME280;24211;49.980;19.776;2023-04-27T12:42:17;99636.75;;;15.07;55.42
38939;BME280;24211;49.980;19.776;2023-04-27T12:44:50;99632.09;;;15.19;52.57
38939;BME280;24211;49.980;19.776;2023-04-27T12:47:20;99636.84;;;15.12;50.36
38939;BME280;24211;49.980;19.776;2023-04-27T12:50:08;99637.25;;;15.04;48.19
38939;BME280;24211;49.980;19.776;2023-04-27T12:52:36;99643.22;;;15.06;49.52
38939;BME280;24211;49.980;19.776;2023-04-27T12:55:04;99633.25;;;15.06;49.02
38939;BME280;24211;49.980;19.776;2023-04-27T12:57:32;99638.81;;;15.00;50.56
38939;BME280;24211;49.980;19.776;2023-04-27T13:00:00;99627.56;;;15.03;50.68
38939;BME280;24211;49.980;19.776;2023-04-27T13:02:28;99624.38;;;15.06;50.67
38939;BME280;24211;49.980;19.776;2023-04-27T13:04:56;99625.59;;;15.15;50.02
38939;BME280;24211;49.980;19.776;2023-04-27T13:07:23;99629.50;;;15.07;50.56
38939;BME280;24211;49.980;19.776;2023-04-27T13:09:50;99626.06;;;15.12;50.80